METAR AND TAF INFORMATION
METAR FOR YBRM
ADDS - METARS form results

(2144 UTC 18 December 2018)
Data provider http://aviationweather.gov/metar/data/
 
METAR text: YBRM 182130Z AUTO 27009KT 9999 // BKN028 27/21 Q1009 RF00.0/000.0
Conditions at: YBRM (BROOME AIRPORT , AU) observed 2130 UTC 18 December 2018
Temperature: 27.0°C (81°F)
Dewpoint: 21.0°C (70°F) [RH = 70%]
Pressure (altimeter): 29.79 inches Hg (1009.0 mb)
Winds: from the W (270 degrees) at 10 MPH (9 knots; 4.6 m/s)
Visibility: 6 or more miles (10+ km)
Ceiling: 2800 feet AGL
Clouds: broken clouds at 2800 feet AGL
Weather: no significant weather observed at this time

METAR text: YBRM 182100Z AUTO 27010KT 9999 // SCT028 27/20 Q1009
Conditions at: YBRM (BROOME AIRPORT , AU) observed 2100 UTC 18 December 2018
Temperature: 27.0°C (81°F)
Dewpoint: 20.0°C (68°F) [RH = 66%]
Pressure (altimeter): 29.79 inches Hg (1009.0 mb)
Winds: from the W (270 degrees) at 12 MPH (10 knots; 5.1 m/s)
Visibility: 6 or more miles (10+ km)
Ceiling: at least 12,000 feet AGL
Clouds: scattered clouds at 2800 feet AGL
Weather: no significant weather observed at this time

Forecast for: YBRM (BROOME AIRPORT , AU)
Text: TAF YBRM 181707Z 1818/1918 27010KT 9999 SCT030
Forecast period: 1800 UTC 18 December 2018 to 1800 UTC 19 December 2018
Forecast type: FROM: standard forecast or significant change
Winds: from the W (270 degrees) at 12 MPH (10 knots; 5.1 m/s)
Visibility: 6 or more miles 10+ km)
Ceiling: at least 12,000 feet AGL
Clouds: scattered clouds at 3000 feet AGL
Weather: no significant weather forecast for this period

 AIRPORT MAP

 RUNWAY INFORMATION
Runway 10 Runway length 8064 ft Runway width 148 ft
Runway elevation 56 ft Runway displaced threshold 295 ft Runway heading 105
Runway 28 Runway length 8064 ft Runway width 148 ft
Runway elevation 22 ft Runway displaced threshold 689 ft Runway heading 285

 AIRPORT FREQUENCIES
Type ATIS Name ATIS Frequency 126.55 MHZ
Type CTAF Name CTAF Frequency 126 MHZ
Type FSS Name BRISBANE C Frequency 123.9 MHZ

 AIRPORT NEAR NAVIGATION AIDS
Type NDB-DME Name Broome Frequency 320 KHZ



Copyright © 2011 - 2018 BirgenAir Virtual Airlines. All rights reserved. Developed by Goktug Unver